createdAt,value
2019-05-15T00:00:40.164Z,8.88
2019-05-15T00:05:00.556Z,8.92
2019-05-15T00:09:21.581Z,8.68
2019-05-15T00:13:41.694Z,8.66
2019-05-15T00:18:01.949Z,8.69
2019-05-15T00:22:22.743Z,8.57
2019-05-15T00:26:43.560Z,8.66
2019-05-15T00:31:04.120Z,8.59
2019-05-15T00:35:27.917Z,8.47
2019-05-15T00:39:48.585Z,8.58
2019-05-15T00:44:09.389Z,8.50
2019-05-15T00:48:29.676Z,8.53
2019-05-15T00:52:49.833Z,8.54
2019-05-15T00:57:10.582Z,8.50
2019-05-15T01:01:31.458Z,8.20
2019-05-15T01:05:52.090Z,8.19
2019-05-15T01:10:12.463Z,8.08
2019-05-15T01:14:33.128Z,8.08
2019-05-15T01:18:54.532Z,8.11
2019-05-15T01:23:15.363Z,8.13
2019-05-15T01:27:38.284Z,8.03
2019-05-15T01:31:59.277Z,7.79
2019-05-15T01:36:20.289Z,8.09
2019-05-15T01:40:41.413Z,7.84
2019-05-15T01:45:01.821Z,7.75
2019-05-15T01:49:23.031Z,7.93
2019-05-15T01:53:44.023Z,7.81
2019-05-15T01:58:04.225Z,7.80
2019-05-15T02:02:24.768Z,7.79
2019-05-15T02:06:48.078Z,7.62
2019-05-15T02:11:09.170Z,7.59
2019-05-15T02:15:30.115Z,7.46
2019-05-15T02:19:50.728Z,7.44
2019-05-15T02:24:11.365Z,7.81
2019-05-15T02:28:31.966Z,7.40
2019-05-15T02:32:52.174Z,7.44
2019-05-15T02:37:13.115Z,7.48
2019-05-15T02:41:33.858Z,7.47
2019-05-15T02:45:54.736Z,7.49
2019-05-15T02:50:15.530Z,7.42
2019-05-15T02:54:36.374Z,7.45
2019-05-15T02:58:59.944Z,7.53
2019-05-15T03:03:20.692Z,7.54
2019-05-15T03:07:41.275Z,7.61
2019-05-15T03:12:02.020Z,7.57
2019-05-15T03:16:22.187Z,7.38
2019-05-15T03:20:42.507Z,7.36
2019-05-15T03:25:03.649Z,7.38
2019-05-15T03:29:23.984Z,7.36
2019-05-15T03:33:46.667Z,7.31
2019-05-15T03:38:09.315Z,7.33
2019-05-15T03:42:29.572Z,7.24
2019-05-15T03:46:50.150Z,7.18
2019-05-15T03:51:10.868Z,7.20
2019-05-15T03:55:31.066Z,7.03
2019-05-15T03:59:51.643Z,7.23
2019-05-15T04:04:13.281Z,7.09
2019-05-15T04:08:33.858Z,7.08
2019-05-15T04:12:54.600Z,7.08
2019-05-15T04:17:15.180Z,7.13
2019-05-15T04:21:41.228Z,7.24
2019-05-15T04:26:01.089Z,7.34
2019-05-15T04:30:21.694Z,7.53
2019-05-15T04:34:42.371Z,7.53
2019-05-15T04:39:05.193Z,7.51
2019-05-15T04:43:29.169Z,7.35
2019-05-15T04:47:49.831Z,7.71
2019-05-15T04:52:10.840Z,7.58
2019-05-15T04:56:32.637Z,7.77
2019-05-15T05:00:55.114Z,7.76
2019-05-15T05:05:15.300Z,7.99
2019-05-15T05:09:38.768Z,7.92
2019-05-15T05:13:59.226Z,8.01
2019-05-15T05:18:19.931Z,8.22
2019-05-15T05:22:40.611Z,8.31
2019-05-15T05:27:01.613Z,8.10
2019-05-15T05:31:21.906Z,8.34
2019-05-15T05:35:42.398Z,8.63
2019-05-15T05:40:02.939Z,8.77
2019-05-15T05:44:23.734Z,9.05
2019-05-15T05:48:44.207Z,9.25
2019-05-15T05:53:05.544Z,9.78
2019-05-15T05:57:27.992Z,9.95
2019-05-15T06:01:48.668Z,10.21
2019-05-15T06:06:09.700Z,10.47
2019-05-15T06:10:31.122Z,10.86
2019-05-15T06:14:51.724Z,10.92
2019-05-15T06:19:12.637Z,10.92
2019-05-15T06:23:35.597Z,11.17
2019-05-15T06:27:58.213Z,11.39
2019-05-15T06:32:19.518Z,11.52
2019-05-15T06:36:40.799Z,11.95
2019-05-15T06:41:01.771Z,12.16
2019-05-15T06:45:24.611Z,12.16
2019-05-15T06:49:45.752Z,12.18
2019-05-15T06:54:08.566Z,12.14
2019-05-15T06:58:29.346Z,12.23
2019-05-15T07:02:50.292Z,12.37
2019-05-15T07:07:11.266Z,12.37
2019-05-15T07:11:31.779Z,11.83
2019-05-15T07:15:52.274Z,11.90
2019-05-15T07:20:14.560Z,12.43
2019-05-15T07:24:35.721Z,12.27
2019-05-15T07:28:56.169Z,12.27
2019-05-15T07:33:20.271Z,12.38
2019-05-15T07:37:39.618Z,12.58
2019-05-15T07:42:02.021Z,13.02
2019-05-15T07:46:22.443Z,13.13
2019-05-15T07:50:43.111Z,13.30
2019-05-15T07:55:04.453Z,13.40
2019-05-15T07:59:25.177Z,13.64
2019-05-15T08:03:56.635Z,13.76
2019-05-15T08:08:09.060Z,13.63
2019-05-15T08:12:29.886Z,13.81
2019-05-15T08:16:51.017Z,13.66
2019-05-15T08:21:11.766Z,13.67
2019-05-15T08:25:35.423Z,13.87
2019-05-15T08:29:54.692Z,13.90
2019-05-15T08:34:16.486Z,13.86
2019-05-15T08:38:38.718Z,14.25
2019-05-15T08:43:02.182Z,14.05
2019-05-15T08:47:21.684Z,13.66
2019-05-15T08:51:42.203Z,14.20
2019-05-15T08:56:02.924Z,14.35
2019-05-15T09:00:24.187Z,14.33
2019-05-15T09:04:45.155Z,14.33
2019-05-15T09:09:09.363Z,14.37
2019-05-15T09:13:29.428Z,14.65
2019-05-15T09:17:50.292Z,14.64
2019-05-15T09:22:11.052Z,14.83
2019-05-15T09:26:35.437Z,15.12
2019-05-15T09:30:59.141Z,15.46
2019-05-15T09:35:19.576Z,15.88
2019-05-15T09:39:40.376Z,15.92
2019-05-15T09:44:01.367Z,16.20
2019-05-15T09:48:22.128Z,15.98
2019-05-15T09:52:42.637Z,15.46
2019-05-15T09:57:03.351Z,15.73
2019-05-15T10:01:23.875Z,15.79
2019-05-15T10:05:44.873Z,15.77
2019-05-15T10:10:08.556Z,15.92
2019-05-15T10:14:29.602Z,15.73
2019-05-15T10:18:51.345Z,15.98
2019-05-15T10:23:11.947Z,16.23
2019-05-15T10:27:32.984Z,16.50
2019-05-15T10:31:53.831Z,16.53
2019-05-15T10:36:14.740Z,16.91
2019-05-15T10:40:39.520Z,16.89
2019-05-15T10:45:01.199Z,16.37
2019-05-15T10:49:21.507Z,16.08
2019-05-15T10:53:43.197Z,16.36
2019-05-15T10:58:03.900Z,16.80
2019-05-15T11:02:24.284Z,17.08
2019-05-15T11:06:45.347Z,17.10
2019-05-15T11:11:08.924Z,16.64
2019-05-15T11:15:29.073Z,16.76
2019-05-15T11:19:50.325Z,16.95
2019-05-15T11:24:10.690Z,16.64
2019-05-15T11:28:32.484Z,17.25
2019-05-15T11:32:53.210Z,17.40
2019-05-15T11:37:13.386Z,17.55
2019-05-15T11:41:34.545Z,17.93
2019-05-15T11:45:58.835Z,18.15
2019-05-15T11:50:20.415Z,18.50
2019-05-15T11:54:41.454Z,18.32
2019-05-15T11:59:08.533Z,18.15
2019-05-15T12:03:38.742Z,17.65
2019-05-15T12:08:05.381Z,17.58
2019-05-15T12:12:32.101Z,18.01
2019-05-15T12:17:05.028Z,18.09
2019-05-15T12:21:21.268Z,18.50
2019-05-15T12:25:48.853Z,18.86
2019-05-15T12:30:14.647Z,18.85
2019-05-15T12:34:39.513Z,17.91
2019-05-15T12:39:10.605Z,18.45
2019-05-15T13:01:17.744Z,18.83
2019-05-15T13:05:41.102Z,18.71
2019-05-15T13:10:08.612Z,18.22
2019-05-15T13:14:32.183Z,18.26
2019-05-15T13:18:58.980Z,18.18
2019-05-15T13:23:28.571Z,17.80
2019-05-15T13:27:49.147Z,17.85
2019-05-15T13:32:09.705Z,18.34
2019-05-15T13:36:30.403Z,19.04
2019-05-15T13:40:51.235Z,19.18
2019-05-15T13:45:13.376Z,19.00
2019-05-15T13:49:34.827Z,18.68
2019-05-15T13:53:55.557Z,18.70
2019-05-15T13:58:16.505Z,18.75
2019-05-15T14:02:38.732Z,18.84
2019-05-15T14:06:59.383Z,18.80
2019-05-15T14:11:21.906Z,19.21
2019-05-15T14:15:44.065Z,18.80
2019-05-15T14:20:09.149Z,19.02
2019-05-15T14:24:29.533Z,18.63
2019-05-15T14:28:50.295Z,17.96
2019-05-15T14:33:11.017Z,18.51
2019-05-15T14:37:32.179Z,18.94
2019-05-15T14:41:53.169Z,18.78
2019-05-15T14:46:13.603Z,18.74
2019-05-15T14:50:34.044Z,18.50
2019-05-15T14:54:54.939Z,18.81
2019-05-15T14:59:15.424Z,18.45
2019-05-15T15:03:38.014Z,18.30
2019-05-15T15:07:58.904Z,18.36
2019-05-15T15:12:19.887Z,18.44
2019-05-15T15:16:40.058Z,18.16
2019-05-15T15:21:01.326Z,18.81
2019-05-15T15:25:21.942Z,18.39
2019-05-15T15:29:43.223Z,18.32
2019-05-15T15:34:03.733Z,18.26
2019-05-15T15:38:37.550Z,18.36
2019-05-15T15:42:48.528Z,18.68
2019-05-15T15:47:09.623Z,18.60
2019-05-15T15:51:30.553Z,18.25
2019-05-15T15:55:50.876Z,18.41
2019-05-15T16:00:13.058Z,18.26
2019-05-15T16:04:33.689Z,18.03
2019-05-15T16:08:55.902Z,18.20
2019-05-15T16:13:18.685Z,18.49
2019-05-15T16:17:39.036Z,18.47
2019-05-15T16:21:59.748Z,18.36
2019-05-15T16:26:21.230Z,18.08
2019-05-15T16:30:51.085Z,17.32
2019-05-15T16:35:03.801Z,17.74
2019-05-15T16:39:25.120Z,18.37
2019-05-15T16:43:45.938Z,18.97
2019-05-15T16:48:09.237Z,20.35
2019-05-15T16:52:30.953Z,21.80
2019-05-15T16:56:52.394Z,21.46
2019-05-15T17:05:34.015Z,20.04
2019-05-15T17:09:54.730Z,20.82
2019-05-15T17:14:15.547Z,20.74
2019-05-15T17:18:38.153Z,20.62
2019-05-15T17:22:59.356Z,21.43
2019-05-15T17:27:20.796Z,21.23
2019-05-15T17:31:41.325Z,20.40
2019-05-15T17:36:01.722Z,20.81
2019-05-15T17:40:22.595Z,21.54
2019-05-15T17:44:43.313Z,21.73
2019-05-15T17:49:08.183Z,20.33
2019-05-15T17:53:28.674Z,19.55
2019-05-15T17:57:56.673Z,18.53
2019-05-15T18:02:12.819Z,17.84
2019-05-15T18:06:33.589Z,17.38
2019-05-15T18:10:54.839Z,17.22
2019-05-15T18:15:15.334Z,16.92
2019-05-15T18:19:37.942Z,16.73
2019-05-15T18:23:58.737Z,16.44
2019-05-15T18:28:19.241Z,16.31
2019-05-15T18:32:40.139Z,16.27
2019-05-15T18:37:01.065Z,15.93
2019-05-15T18:41:21.703Z,15.74
2019-05-15T18:45:42.587Z,15.57
2019-05-15T18:50:06.147Z,15.53
2019-05-15T18:54:28.057Z,15.34
2019-05-15T18:58:48.922Z,15.29
2019-05-15T19:03:19.521Z,15.17
2019-05-15T19:07:32.945Z,15.16
2019-05-15T19:11:54.034Z,15.00
2019-05-15T19:16:14.398Z,14.81
2019-05-15T19:20:35.472Z,14.81
2019-05-15T19:24:58.310Z,14.81
2019-05-15T19:29:18.567Z,14.67
2019-05-15T19:33:41.172Z,14.65
2019-05-15T19:38:02.285Z,14.54
2019-05-15T19:42:23.663Z,14.48
2019-05-15T19:46:43.540Z,14.45
2019-05-15T19:51:04.804Z,14.38
2019-05-15T19:55:25.645Z,14.16
2019-05-15T19:59:48.853Z,14.08
2019-05-15T20:04:09.285Z,13.88
2019-05-15T20:08:30.914Z,13.75
2019-05-15T20:12:52.619Z,13.60
2019-05-15T20:17:14.381Z,13.73
2019-05-15T20:21:35.401Z,13.48
2019-05-15T20:25:57.675Z,13.47
2019-05-15T20:30:18.548Z,13.20
2019-05-15T20:34:39.442Z,13.10
2019-05-15T20:39:00.075Z,13.06
2019-05-15T20:43:20.723Z,13.08
2019-05-15T20:47:41.325Z,13.11
2019-05-15T20:52:02.088Z,12.96
2019-05-15T20:56:23.216Z,12.83
2019-05-15T21:00:44.272Z,12.77
2019-05-15T21:05:05.156Z,12.63
2019-05-15T21:09:30.837Z,12.75
2019-05-15T21:13:52.367Z,12.44
2019-05-15T21:18:15.951Z,12.44
2019-05-15T21:22:36.114Z,12.68
2019-05-15T21:26:58.153Z,12.66
2019-05-15T21:31:22.119Z,12.66
2019-05-15T21:35:42.859Z,12.37
2019-05-15T21:40:04.652Z,12.09
2019-05-15T21:44:25.449Z,12.09
2019-05-15T21:48:48.556Z,12.07
2019-05-15T21:53:09.493Z,11.94
2019-05-15T21:57:36.275Z,11.86
2019-05-15T22:01:52.093Z,11.68
2019-05-15T22:06:12.811Z,11.68
2019-05-15T22:10:33.657Z,11.49
2019-05-15T22:14:54.019Z,11.62
2019-05-15T22:19:14.758Z,11.41
2019-05-15T22:23:35.426Z,11.41
2019-05-15T22:27:57.893Z,11.53
2019-05-15T22:32:18.731Z,11.30
2019-05-15T22:36:40.428Z,11.17
2019-05-15T22:41:00.860Z,11.27
2019-05-15T22:45:21.050Z,11.27
2019-05-15T22:49:42.040Z,11.12
2019-05-15T22:54:02.447Z,10.92
2019-05-15T22:58:22.818Z,10.90
2019-05-15T23:02:43.007Z,10.86
2019-05-15T23:07:03.953Z,10.82
2019-05-15T23:11:24.774Z,10.52
2019-05-15T23:15:47.611Z,10.43
2019-05-15T23:20:08.861Z,10.43
2019-05-15T23:24:29.678Z,10.40
2019-05-15T23:28:50.035Z,10.32
2019-05-15T23:33:10.371Z,10.24
2019-05-15T23:37:30.737Z,10.20
2019-05-15T23:41:51.269Z,10.21
2019-05-15T23:46:11.673Z,10.25
2019-05-15T23:50:31.882Z,10.17
2019-05-15T23:54:52.602Z,10.04
2019-05-15T23:59:12.978Z,9.98
